createdAt,value
2017-11-14T00:00:19.669Z,7.4
2017-11-14T00:01:22.084Z,7.4
2017-11-14T00:02:24.524Z,7.4
2017-11-14T00:03:26.948Z,7.4
2017-11-14T00:04:29.723Z,7.4
2017-11-14T00:05:32.157Z,7.3
2017-11-14T00:06:34.579Z,7.3
2017-11-14T00:07:37.005Z,7.3
2017-11-14T00:08:39.435Z,7.3
2017-11-14T00:09:41.926Z,7.3
2017-11-14T00:10:44.337Z,7.3
2017-11-14T00:11:46.763Z,7.3
2017-11-14T00:12:49.171Z,7.2
2017-11-14T00:13:51.601Z,7.3
2017-11-14T00:14:54.021Z,7.2
2017-11-14T00:15:56.431Z,7.2
2017-11-14T00:16:58.852Z,7.2
2017-11-14T00:18:01.278Z,7.2
2017-11-14T00:19:03.697Z,7.2
2017-11-14T00:20:06.116Z,7.1
2017-11-14T00:21:08.528Z,7.1
2017-11-14T00:22:10.957Z,7.2
2017-11-14T00:23:13.381Z,7.2
2017-11-14T00:24:15.804Z,7.2
2017-11-14T00:25:18.227Z,7.1
2017-11-14T00:26:20.670Z,7.1
2017-11-14T00:27:23.092Z,7.2
2017-11-14T00:28:25.520Z,7.1
2017-11-14T00:29:28.301Z,7.1
2017-11-14T00:30:30.722Z,7.1
2017-11-14T00:31:33.147Z,7.1
2017-11-14T00:32:35.573Z,7.1
2017-11-14T00:33:37.986Z,7.1
2017-11-14T00:34:40.423Z,7.2
2017-11-14T00:35:42.839Z,7.2
2017-11-14T00:36:45.270Z,7.2
2017-11-14T00:37:47.695Z,7.1
2017-11-14T00:38:50.121Z,7.1
2017-11-14T00:39:52.532Z,7.1
2017-11-14T00:40:54.956Z,7.2
2017-11-14T00:41:57.375Z,7.1
2017-11-14T00:42:59.805Z,7.1
2017-11-14T00:44:02.210Z,7.1
2017-11-14T00:45:04.635Z,7.1
2017-11-14T00:46:07.062Z,7.1
2017-11-14T00:47:09.495Z,7.1
2017-11-14T00:48:11.922Z,7.1
2017-11-14T00:49:14.335Z,7.1
2017-11-14T00:50:16.758Z,7.1
2017-11-14T00:51:19.177Z,7.1
2017-11-14T00:52:21.591Z,7.1
2017-11-14T00:53:24.381Z,7.1
2017-11-14T00:54:26.798Z,7.1
2017-11-14T00:55:29.221Z,7.1
2017-11-14T00:56:31.641Z,7.1
2017-11-14T00:57:34.061Z,7.1
2017-11-14T00:58:36.483Z,7.2
2017-11-14T00:59:38.915Z,7.1
2017-11-14T01:00:41.328Z,7.2
2017-11-14T01:01:43.758Z,7.1
2017-11-14T01:02:46.175Z,7.1
2017-11-14T01:03:48.599Z,7.1
2017-11-14T01:04:51.378Z,7.1
2017-11-14T01:05:54.153Z,7
2017-11-14T01:06:56.934Z,7
2017-11-14T01:07:59.356Z,7
2017-11-14T01:09:01.768Z,7
2017-11-14T01:10:04.207Z,7
2017-11-14T01:11:06.625Z,7
2017-11-14T01:12:09.049Z,7
2017-11-14T01:13:11.472Z,7
2017-11-14T01:14:13.892Z,7
2017-11-14T01:15:16.301Z,6.9
2017-11-14T01:16:18.726Z,6.9
2017-11-14T01:17:21.158Z,6.9
2017-11-14T01:18:23.577Z,6.9
2017-11-14T01:19:25.980Z,6.9
2017-11-14T01:20:28.751Z,6.9
2017-11-14T01:21:31.177Z,6.9
2017-11-14T01:22:33.648Z,6.8
2017-11-14T01:23:36.429Z,6.8
2017-11-14T01:24:39.214Z,6.8
2017-11-14T01:25:41.633Z,6.8
2017-11-14T01:26:44.064Z,6.8
2017-11-14T01:27:46.482Z,6.8
2017-11-14T01:28:48.896Z,6.8
2017-11-14T01:29:51.677Z,6.8
2017-11-14T01:30:54.104Z,6.8
2017-11-14T01:31:56.533Z,6.8
2017-11-14T01:32:58.956Z,6.7
2017-11-14T01:34:01.378Z,6.7
2017-11-14T01:35:03.796Z,6.7
2017-11-14T01:36:06.223Z,6.7
2017-11-14T01:37:08.636Z,6.7
2017-11-14T01:38:11.050Z,6.7
2017-11-14T01:39:13.468Z,6.7
2017-11-14T01:40:16.269Z,6.7
2017-11-14T01:41:18.704Z,6.7
2017-11-14T01:42:21.121Z,6.7
2017-11-14T01:43:23.539Z,6.7
2017-11-14T01:44:25.958Z,6.7
2017-11-14T01:45:28.381Z,6.7
2017-11-14T01:46:31.157Z,6.8
2017-11-14T01:47:33.587Z,6.7
2017-11-14T01:48:36.012Z,6.8
2017-11-14T01:49:38.424Z,6.7
2017-11-14T01:50:40.857Z,6.8
2017-11-14T01:51:43.284Z,6.7
2017-11-14T01:52:45.698Z,6.8
2017-11-14T01:53:48.128Z,6.8
2017-11-14T01:54:50.540Z,6.8
2017-11-14T01:55:53.335Z,6.8
2017-11-14T01:56:55.756Z,6.8
2017-11-14T01:57:58.173Z,6.7
2017-11-14T01:59:00.957Z,6.7
2017-11-14T02:00:03.767Z,6.7
2017-11-14T02:01:06.171Z,6.7
2017-11-14T02:02:08.977Z,6.7
2017-11-14T02:03:11.397Z,6.7
2017-11-14T02:04:13.810Z,6.7
2017-11-14T02:05:16.240Z,6.7
2017-11-14T02:06:18.659Z,6.7
2017-11-14T02:07:21.064Z,6.7
2017-11-14T02:08:23.493Z,6.7
2017-11-14T02:09:25.913Z,6.7
2017-11-14T02:10:28.331Z,6.7
2017-11-14T02:11:30.756Z,6.7
2017-11-14T02:12:33.171Z,6.7
2017-11-14T02:13:35.587Z,6.7
2017-11-14T02:14:38.014Z,6.7
2017-11-14T02:15:40.422Z,6.7
2017-11-14T02:16:42.841Z,6.7
2017-11-14T02:17:45.264Z,6.7
2017-11-14T02:18:47.697Z,6.7
2017-11-14T02:19:50.121Z,6.7
2017-11-14T02:20:52.544Z,6.7
2017-11-14T02:21:54.964Z,6.7
2017-11-14T02:22:57.378Z,6.8
2017-11-14T02:23:59.799Z,6.8
2017-11-14T02:25:02.222Z,6.8
2017-11-14T02:26:04.623Z,6.8
2017-11-14T02:27:07.043Z,6.8
2017-11-14T02:28:09.471Z,6.8
2017-11-14T02:29:12.245Z,6.8
2017-11-14T02:30:14.668Z,6.9
2017-11-14T02:31:17.082Z,6.9
2017-11-14T02:32:19.493Z,6.8
2017-11-14T02:33:22.282Z,6.9
2017-11-14T02:34:24.709Z,6.8
2017-11-14T02:35:27.130Z,6.9
2017-11-14T02:36:29.551Z,6.9
2017-11-14T02:37:31.966Z,6.9
2017-11-14T02:38:35.108Z,6.9
2017-11-14T02:39:37.532Z,6.9
2017-11-14T02:40:39.944Z,6.9
2017-11-14T02:41:42.363Z,6.9
2017-11-14T02:42:45.151Z,6.9
2017-11-14T02:43:47.578Z,6.9
2017-11-14T02:44:50.376Z,6.9
2017-11-14T02:45:52.802Z,6.9
2017-11-14T02:46:55.230Z,7
2017-11-14T02:47:58.026Z,7
2017-11-14T02:49:00.446Z,7
2017-11-14T02:50:02.880Z,7
2017-11-14T02:51:05.662Z,7
2017-11-14T02:52:08.083Z,7
2017-11-14T02:53:10.506Z,7
2017-11-14T02:54:12.925Z,7
2017-11-14T02:55:15.343Z,7
2017-11-14T02:56:17.758Z,7
2017-11-14T02:57:20.166Z,7
2017-11-14T02:58:22.591Z,6.9
2017-11-14T02:59:25.036Z,7
2017-11-14T03:00:27.799Z,7
2017-11-14T03:01:30.214Z,7
2017-11-14T03:02:32.630Z,7
2017-11-14T03:03:35.409Z,7
2017-11-14T03:04:37.843Z,7
2017-11-14T03:05:40.272Z,7
2017-11-14T03:06:42.684Z,7
2017-11-14T03:07:45.111Z,7
2017-11-14T03:08:47.532Z,7
2017-11-14T03:09:49.952Z,7
2017-11-14T03:10:52.370Z,7
2017-11-14T03:11:54.788Z,7
2017-11-14T03:12:57.214Z,7
2017-11-14T03:13:59.632Z,7
2017-11-14T03:15:02.058Z,7
2017-11-14T03:16:04.471Z,7
2017-11-14T03:17:07.244Z,7
2017-11-14T03:18:09.666Z,7
2017-11-14T03:19:12.082Z,7
2017-11-14T03:20:14.498Z,7
2017-11-14T03:21:17.274Z,7
2017-11-14T03:22:19.687Z,7
2017-11-14T03:23:22.491Z,7
2017-11-14T03:24:24.920Z,7
2017-11-14T03:25:27.325Z,7
2017-11-14T03:26:29.752Z,7
2017-11-14T03:27:32.537Z,7
2017-11-14T03:28:34.962Z,7
2017-11-14T03:29:37.391Z,7
2017-11-14T03:30:39.810Z,7
2017-11-14T03:31:42.619Z,7
2017-11-14T03:32:45.043Z,7
2017-11-14T03:33:47.455Z,7
2017-11-14T03:34:50.241Z,7
2017-11-14T03:35:52.666Z,6.9
2017-11-14T03:36:55.438Z,6.9
2017-11-14T03:37:57.866Z,7
2017-11-14T03:39:00.286Z,6.9
2017-11-14T03:40:03.055Z,6.9
2017-11-14T03:41:05.485Z,6.9
2017-11-14T03:42:08.260Z,6.9
2017-11-14T03:43:11.032Z,6.9
2017-11-14T03:44:13.475Z,6.9
2017-11-14T03:45:15.894Z,6.9
2017-11-14T03:46:18.314Z,6.9
2017-11-14T03:47:20.740Z,6.9
2017-11-14T03:48:23.148Z,6.9
2017-11-14T03:49:25.586Z,6.9
2017-11-14T03:50:28.006Z,6.9
2017-11-14T03:51:30.787Z,6.9
2017-11-14T03:52:33.198Z,6.9
2017-11-14T03:53:35.618Z,6.9
2017-11-14T03:54:38.035Z,6.9
2017-11-14T03:55:40.469Z,6.9
2017-11-14T03:56:42.882Z,6.9
2017-11-14T03:57:45.294Z,6.9
2017-11-14T03:58:47.722Z,6.9
2017-11-14T03:59:50.133Z,6.9
2017-11-14T04:00:52.556Z,6.9
2017-11-14T04:01:54.991Z,6.9
2017-11-14T04:02:57.391Z,6.9
2017-11-14T04:03:59.819Z,6.9
2017-11-14T04:05:02.239Z,6.9
2017-11-14T04:06:04.665Z,6.9
2017-11-14T04:07:07.080Z,6.9
2017-11-14T04:08:09.501Z,6.9
2017-11-14T04:09:11.915Z,6.8
2017-11-14T04:10:14.348Z,6.9
2017-11-14T04:11:17.127Z,6.8
2017-11-14T04:12:19.548Z,6.8
2017-11-14T04:13:21.980Z,6.8
2017-11-14T04:14:24.408Z,6.8
2017-11-14T04:15:26.822Z,6.8
2017-11-14T04:16:29.244Z,6.8
2017-11-14T04:17:31.670Z,6.8
2017-11-14T04:18:34.089Z,6.8
2017-11-14T04:19:36.509Z,6.7
2017-11-14T04:20:38.938Z,6.7
2017-11-14T04:21:41.356Z,6.7
2017-11-14T04:22:43.766Z,6.7
2017-11-14T04:23:46.187Z,6.7
2017-11-14T04:24:48.958Z,6.7
2017-11-14T04:25:51.383Z,6.7
2017-11-14T04:26:54.157Z,6.7
2017-11-14T04:27:56.574Z,6.7
2017-11-14T04:28:58.996Z,6.7
2017-11-14T04:30:01.412Z,6.7
2017-11-14T04:31:03.821Z,6.7
2017-11-14T04:32:06.603Z,6.7
2017-11-14T04:33:09.021Z,6.7
2017-11-14T04:34:11.439Z,6.7
2017-11-14T04:35:13.869Z,6.7
2017-11-14T04:36:16.285Z,6.7
2017-11-14T04:37:18.706Z,6.7
2017-11-14T04:38:21.142Z,6.7
2017-11-14T04:39:23.917Z,6.7
2017-11-14T04:40:26.337Z,6.7
2017-11-14T04:41:28.749Z,6.8
2017-11-14T04:42:31.165Z,6.7
2017-11-14T04:43:33.595Z,6.7
2017-11-14T04:44:36.011Z,6.7
2017-11-14T04:45:38.431Z,6.7
2017-11-14T04:46:40.840Z,6.8
2017-11-14T04:47:43.261Z,6.8
2017-11-14T04:48:45.687Z,6.8
2017-11-14T04:49:48.105Z,6.8
2017-11-14T04:50:50.521Z,6.8
2017-11-14T04:51:52.942Z,6.8
2017-11-14T04:52:55.360Z,6.8
2017-11-14T04:53:57.791Z,6.8
2017-11-14T04:55:00.211Z,6.8
2017-11-14T04:56:02.624Z,6.8
2017-11-14T04:57:05.044Z,6.8
2017-11-14T04:58:07.469Z,6.8
2017-11-14T04:59:10.258Z,6.8
2017-11-14T05:00:12.686Z,6.8
2017-11-14T05:01:15.111Z,6.8
2017-11-14T05:02:17.541Z,6.8
2017-11-14T05:03:19.970Z,6.8
2017-11-14T05:04:22.382Z,6.8
2017-11-14T05:05:24.802Z,6.8
2017-11-14T05:06:27.220Z,6.8
2017-11-14T05:07:30.019Z,6.9
2017-11-14T05:08:32.449Z,6.9
2017-11-14T05:09:34.868Z,6.9
2017-11-14T05:10:37.271Z,6.9
2017-11-14T05:11:39.714Z,6.9
2017-11-14T05:12:42.121Z,6.9
2017-11-14T05:13:44.546Z,6.9
2017-11-14T05:14:46.956Z,6.9
2017-11-14T05:15:49.369Z,6.9
2017-11-14T05:16:51.786Z,6.9
2017-11-14T05:17:54.202Z,6.9
2017-11-14T05:18:56.614Z,6.8
2017-11-14T05:19:59.047Z,6.8
2017-11-14T05:21:01.462Z,6.8
2017-11-14T05:22:03.893Z,6.8
2017-11-14T05:23:06.316Z,6.8
2017-11-14T05:24:08.739Z,6.8
2017-11-14T05:25:11.161Z,6.8
2017-11-14T05:26:13.586Z,6.8
2017-11-14T05:27:15.993Z,6.8
2017-11-14T05:28:18.836Z,6.8
2017-11-14T05:29:21.603Z,6.8
2017-11-14T05:30:24.022Z,6.8
2017-11-14T05:31:26.802Z,6.8
2017-11-14T05:32:29.216Z,6.8
2017-11-14T05:33:31.631Z,6.8
2017-11-14T05:34:34.045Z,6.8
2017-11-14T05:35:36.454Z,6.7
2017-11-14T05:36:38.881Z,6.7
2017-11-14T05:37:41.652Z,6.7
2017-11-14T05:38:44.066Z,6.7
2017-11-14T05:39:46.484Z,6.7
2017-11-14T05:40:48.914Z,6.7
2017-11-14T05:41:52.036Z,6.7
2017-11-14T05:42:54.465Z,6.7
2017-11-14T05:43:56.886Z,6.7
2017-11-14T05:44:59.300Z,6.7
2017-11-14T05:46:01.728Z,6.7
2017-11-14T05:47:04.148Z,6.6
2017-11-14T05:48:06.567Z,6.6
2017-11-14T05:49:08.991Z,6.6
2017-11-14T05:50:11.406Z,6.6
2017-11-14T05:51:13.827Z,6.6
2017-11-14T05:52:16.257Z,6.6
2017-11-14T05:53:19.028Z,6.6
2017-11-14T05:54:21.449Z,6.6
2017-11-14T05:55:23.878Z,6.6
2017-11-14T05:56:26.298Z,6.6
2017-11-14T05:57:28.714Z,6.6
2017-11-14T05:58:31.134Z,6.6
2017-11-14T05:59:34.280Z,6.6
2017-11-14T06:00:36.715Z,6.6
2017-11-14T06:01:39.485Z,6.6
2017-11-14T06:02:41.900Z,6.6
2017-11-14T06:03:44.326Z,6.6
2017-11-14T06:04:46.735Z,6.6
2017-11-14T06:05:49.158Z,6.5
2017-11-14T06:06:51.581Z,6.6
2017-11-14T06:07:53.997Z,6.6
2017-11-14T06:08:56.418Z,6.6
2017-11-14T06:09:58.856Z,6.6
2017-11-14T06:11:01.276Z,6.5
2017-11-14T06:12:03.693Z,6.6
2017-11-14T06:13:06.114Z,6.5
2017-11-14T06:14:08.538Z,6.5
2017-11-14T06:15:10.955Z,6.5
2017-11-14T06:16:13.369Z,6.5
2017-11-14T06:17:15.799Z,6.5
2017-11-14T06:18:18.216Z,6.5
2017-11-14T06:19:20.627Z,6.5
2017-11-14T06:20:23.425Z,6.5
2017-11-14T06:21:25.837Z,6.5
2017-11-14T06:22:28.600Z,6.5
2017-11-14T06:23:31.023Z,6.5
2017-11-14T06:24:33.429Z,6.5
2017-11-14T06:25:36.204Z,6.5
2017-11-14T06:26:38.640Z,6.5
2017-11-14T06:27:41.051Z,6.5
2017-11-14T06:28:43.467Z,6.5
2017-11-14T06:29:45.889Z,6.5
2017-11-14T06:30:48.304Z,6.5
2017-11-14T06:31:50.736Z,6.5
2017-11-14T06:32:53.305Z,6.5
2017-11-14T06:33:56.075Z,6.5
2017-11-14T06:34:58.505Z,6.5
2017-11-14T06:36:00.919Z,6.5
2017-11-14T06:37:03.690Z,6.5
2017-11-14T06:38:06.111Z,6.5
2017-11-14T06:39:08.523Z,6.5
2017-11-14T06:40:10.945Z,6.5
2017-11-14T06:41:14.103Z,6.5
2017-11-14T06:42:16.523Z,6.5
2017-11-14T06:43:19.283Z,6.4
2017-11-14T06:44:21.710Z,6.4
2017-11-14T06:45:24.136Z,6.4
2017-11-14T06:46:26.553Z,6.4
2017-11-14T06:47:28.969Z,6.4
2017-11-14T06:48:31.384Z,6.4
2017-11-14T06:49:33.795Z,6.4
2017-11-14T06:50:36.232Z,6.4
2017-11-14T06:51:38.650Z,6.4
2017-11-14T06:52:41.048Z,6.4
2017-11-14T06:53:43.478Z,6.4
2017-11-14T06:54:45.882Z,6.4
2017-11-14T06:55:48.308Z,6.4
2017-11-14T06:56:50.728Z,6.4
2017-11-14T06:57:53.128Z,6.4
2017-11-14T06:58:55.547Z,6.4
2017-11-14T06:59:57.977Z,6.4
2017-11-14T07:01:00.393Z,6.3
2017-11-14T07:02:02.812Z,6.3
2017-11-14T07:03:05.228Z,6.4
2017-11-14T07:04:07.638Z,6.4
2017-11-14T07:05:10.065Z,6.4
2017-11-14T07:06:12.482Z,6.4
2017-11-14T07:07:14.886Z,6.4
2017-11-14T07:08:17.678Z,6.5
2017-11-14T07:09:20.089Z,6.5
2017-11-14T07:10:22.508Z,6.5
2017-11-14T07:11:25.276Z,6.6
2017-11-14T07:12:27.697Z,6.6
2017-11-14T07:13:30.113Z,6.7
2017-11-14T07:14:32.521Z,6.7
2017-11-14T07:15:35.297Z,6.7
2017-11-14T07:16:37.728Z,6.8
2017-11-14T07:17:40.140Z,6.8
2017-11-14T07:18:42.558Z,6.9
2017-11-14T07:19:44.983Z,6.9
2017-11-14T07:20:47.400Z,7
2017-11-14T07:21:49.816Z,7
2017-11-14T07:22:52.231Z,7.1
2017-11-14T07:23:55.000Z,7.1
2017-11-14T07:24:57.425Z,7.2
2017-11-14T07:25:59.851Z,7.3
2017-11-14T07:27:02.267Z,7.3
2017-11-14T07:28:04.678Z,7.4
2017-11-14T07:29:07.092Z,7.5
2017-11-14T07:30:09.522Z,7.5
2017-11-14T07:31:11.952Z,7.6
2017-11-14T07:32:14.360Z,7.6
2017-11-14T07:33:16.786Z,7.7
2017-11-14T07:34:19.212Z,7.8
2017-11-14T07:35:21.633Z,7.8
2017-11-14T07:36:24.418Z,7.9
2017-11-14T07:37:26.840Z,8
2017-11-14T07:38:29.245Z,8.1
2017-11-14T07:39:32.037Z,8.1
2017-11-14T07:40:34.462Z,8.2
2017-11-14T07:41:36.887Z,8.3
2017-11-14T07:42:39.653Z,8.3
2017-11-14T07:43:42.075Z,8.3
2017-11-14T07:44:44.856Z,8.3
2017-11-14T07:45:47.270Z,8.4
2017-11-14T07:46:49.686Z,8.4
2017-11-14T07:47:52.111Z,8.4
2017-11-14T07:48:54.520Z,8.5
2017-11-14T07:49:56.947Z,8.5
2017-11-14T07:50:59.364Z,8.5
2017-11-14T07:52:01.787Z,8.6
2017-11-14T07:53:04.209Z,8.6
2017-11-14T07:54:06.631Z,8.6
2017-11-14T07:55:09.039Z,8.6
2017-11-14T07:56:11.471Z,8.6
2017-11-14T07:57:13.901Z,8.6
2017-11-14T07:58:16.300Z,8.6
2017-11-14T07:59:18.742Z,8.6
2017-11-14T08:00:21.547Z,8.6
2017-11-14T08:01:23.976Z,8.6
2017-11-14T08:02:26.386Z,8.6
2017-11-14T08:03:28.805Z,8.5
2017-11-14T08:04:31.229Z,8.5
2017-11-14T08:05:33.649Z,8.4
2017-11-14T08:06:36.057Z,8.4
2017-11-14T08:07:38.488Z,8.4
2017-11-14T08:08:40.901Z,8.4
2017-11-14T08:09:43.673Z,8.4
2017-11-14T08:10:46.448Z,8.4
2017-11-14T08:11:48.882Z,8.3
2017-11-14T08:12:51.668Z,8.3
2017-11-14T08:13:54.075Z,8.3
2017-11-14T08:14:56.498Z,8.3
2017-11-14T08:15:58.921Z,8.3
2017-11-14T08:17:01.344Z,8.3
2017-11-14T08:18:03.758Z,8.3
2017-11-14T08:19:06.175Z,8.3
2017-11-14T08:20:08.592Z,8.3
2017-11-14T08:21:11.028Z,8.3
2017-11-14T08:22:13.441Z,8.3
2017-11-14T08:23:15.850Z,8.3
2017-11-14T08:24:18.272Z,8.3
2017-11-14T08:25:20.692Z,8.3
2017-11-14T08:26:23.114Z,8.3
2017-11-14T08:27:25.536Z,8.3
2017-11-14T08:28:27.956Z,8.3
2017-11-14T08:29:30.377Z,8.4
2017-11-14T08:30:32.795Z,8.4
2017-11-14T08:31:35.213Z,8.4
2017-11-14T08:32:37.990Z,8.5
2017-11-14T08:33:40.414Z,8.4
2017-11-14T08:34:42.832Z,8.5
2017-11-14T08:35:45.257Z,8.5
2017-11-14T08:36:47.672Z,8.5
2017-11-14T08:37:50.096Z,8.6
2017-11-14T08:38:52.520Z,8.5
2017-11-14T08:39:55.302Z,8.5
2017-11-14T08:40:57.724Z,8.6
2017-11-14T08:42:00.528Z,8.6
2017-11-14T08:43:02.937Z,8.6
2017-11-14T08:44:05.361Z,8.6
2017-11-14T08:45:07.766Z,8.6
2017-11-14T08:46:10.186Z,8.6
2017-11-14T08:47:12.617Z,8.7
2017-11-14T08:48:15.029Z,8.7
2017-11-14T08:49:17.457Z,8.7
2017-11-14T08:50:19.878Z,8.7
2017-11-14T08:51:22.298Z,8.6
2017-11-14T08:52:24.721Z,8.7
2017-11-14T08:53:27.144Z,8.7
2017-11-14T08:54:29.550Z,8.7
2017-11-14T08:55:31.974Z,8.7
2017-11-14T08:56:34.395Z,8.7
2017-11-14T08:57:36.808Z,8.7
2017-11-14T08:58:39.239Z,8.7
2017-11-14T08:59:41.657Z,8.7
2017-11-14T09:00:44.077Z,8.7
2017-11-14T09:01:46.496Z,8.7
2017-11-14T09:02:48.918Z,8.7
2017-11-14T09:03:51.337Z,8.7
2017-11-14T09:04:54.124Z,8.7
2017-11-14T09:05:56.540Z,8.7
2017-11-14T09:06:58.967Z,8.7
2017-11-14T09:08:01.387Z,8.7
2017-11-14T09:09:04.166Z,8.7
2017-11-14T09:10:06.576Z,8.7
2017-11-14T09:11:09.005Z,8.8
2017-11-14T09:12:11.416Z,8.8
2017-11-14T09:13:13.835Z,8.9
2017-11-14T09:14:16.259Z,8.9
2017-11-14T09:15:18.673Z,9
2017-11-14T09:16:21.093Z,9
2017-11-14T09:17:23.518Z,9.1
2017-11-14T09:18:25.921Z,9.1
2017-11-14T09:19:28.347Z,9.1
2017-11-14T09:20:31.126Z,9.1
2017-11-14T09:21:33.556Z,9.2
2017-11-14T09:22:35.968Z,9.2
2017-11-14T09:23:38.739Z,9.2
2017-11-14T09:24:41.157Z,9.3
2017-11-14T09:25:43.576Z,9.3
2017-11-14T09:26:45.987Z,9.4
2017-11-14T09:27:48.406Z,9.4
2017-11-14T09:28:50.823Z,9.4
2017-11-14T09:29:53.254Z,9.5
2017-11-14T09:30:55.676Z,9.5
2017-11-14T09:31:58.447Z,9.5
2017-11-14T09:33:00.872Z,9.6
2017-11-14T09:34:03.653Z,9.6
2017-11-14T09:35:06.433Z,9.7
2017-11-14T09:36:09.566Z,9.7
2017-11-14T09:37:11.974Z,9.7
2017-11-14T09:38:14.399Z,9.7
2017-11-14T09:39:16.819Z,9.7
2017-11-14T09:40:19.233Z,9.7
2017-11-14T09:41:21.650Z,9.7
2017-11-14T09:42:24.064Z,9.7
2017-11-14T09:43:26.487Z,9.8
2017-11-14T09:44:28.917Z,9.8
2017-11-14T09:45:31.334Z,9.8
2017-11-14T09:46:33.754Z,9.9
2017-11-14T09:47:36.538Z,9.9
2017-11-14T09:48:38.962Z,9.9
2017-11-14T09:49:41.746Z,9.9
2017-11-14T09:50:44.177Z,9.9
2017-11-14T09:51:46.587Z,9.9
2017-11-14T09:52:49.014Z,9.9
2017-11-14T09:53:51.435Z,9.9
2017-11-14T09:54:54.579Z,9.9
2017-11-14T09:55:57.005Z,9.9
2017-11-14T09:56:59.425Z,9.9
2017-11-14T09:58:01.840Z,9.9
2017-11-14T09:59:04.269Z,9.9
2017-11-14T10:00:06.698Z,9.8
2017-11-14T10:01:09.124Z,9.8
2017-11-14T10:02:11.548Z,9.8
2017-11-14T10:03:13.963Z,9.8
2017-11-14T10:04:16.748Z,9.8
2017-11-14T10:05:19.177Z,9.8
2017-11-14T10:06:21.609Z,9.9
2017-11-14T10:07:24.022Z,9.9
2017-11-14T10:08:26.447Z,9.8
2017-11-14T10:09:28.872Z,9.8
2017-11-14T10:10:31.282Z,9.8
2017-11-14T10:11:33.701Z,9.8
2017-11-14T10:12:36.135Z,9.8
2017-11-14T10:13:38.553Z,9.7
2017-11-14T10:14:40.980Z,9.7
2017-11-14T10:15:43.438Z,9.7
2017-11-14T10:16:45.873Z,9.8
2017-11-14T10:17:48.301Z,9.7
2017-11-14T10:18:50.732Z,9.7
2017-11-14T10:19:53.144Z,9.7
2017-11-14T10:20:55.570Z,9.8
2017-11-14T10:21:58.376Z,9.8
2017-11-14T10:23:00.797Z,9.8
2017-11-14T10:24:03.223Z,9.8
2017-11-14T10:25:05.642Z,9.8
2017-11-14T10:26:08.061Z,9.8
2017-11-14T10:27:10.494Z,9.8
2017-11-14T10:28:12.914Z,9.9
2017-11-14T10:29:15.340Z,9.9
2017-11-14T10:30:17.759Z,9.9
2017-11-14T10:32:11.840Z,9.9
2017-11-14T10:33:14.214Z,9.9
2017-11-14T10:34:16.584Z,9.9
2017-11-14T10:35:18.946Z,9.9
2017-11-14T10:36:21.318Z,9.8
2017-11-14T10:37:23.683Z,9.8
2017-11-14T10:38:26.055Z,9.8
2017-11-14T10:39:28.423Z,9.8
2017-11-14T10:40:30.792Z,9.8
2017-11-14T10:41:33.160Z,9.8
2017-11-14T10:42:35.524Z,9.9
2017-11-14T10:43:38.251Z,9.9
2017-11-14T10:44:40.630Z,9.9
2017-11-14T10:45:42.997Z,9.9
2017-11-14T10:46:45.360Z,10
2017-11-14T10:47:47.736Z,9.9
2017-11-14T10:48:50.101Z,10
2017-11-14T10:49:52.463Z,10
2017-11-14T10:50:54.833Z,10
2017-11-14T10:51:57.194Z,10
2017-11-14T10:52:59.561Z,10
2017-11-14T10:54:01.941Z,10
2017-11-14T10:55:04.307Z,10.1
2017-11-14T10:56:06.678Z,10.1
2017-11-14T10:57:09.399Z,10.1
2017-11-14T10:58:11.762Z,10.1
2017-11-14T10:59:14.139Z,10.1
2017-11-14T11:00:16.510Z,10.2
2017-11-14T11:01:18.861Z,10.2
2017-11-14T11:02:21.235Z,10.2
2017-11-14T11:03:23.593Z,10.2
2017-11-14T11:04:26.330Z,10.2
2017-11-14T11:05:28.694Z,10.2
2017-11-14T11:06:31.057Z,10.2
2017-11-14T11:07:33.427Z,10.2
2017-11-14T11:08:35.798Z,10.2
2017-11-14T11:09:38.160Z,10.2
2017-11-14T11:10:40.525Z,10.2
2017-11-14T11:11:43.251Z,10.2
2017-11-14T11:12:45.635Z,10.2
2017-11-14T11:13:47.994Z,10.2
2017-11-14T11:14:50.361Z,10.2
2017-11-14T11:15:52.727Z,10.2
2017-11-14T11:16:55.091Z,10.2
2017-11-14T11:17:57.458Z,10.2
2017-11-14T11:18:59.834Z,10.2
2017-11-14T11:20:02.189Z,10.3
2017-11-14T11:21:04.556Z,10.3
2017-11-14T11:22:06.931Z,10.3
2017-11-14T11:23:09.302Z,10.3
2017-11-14T11:24:11.672Z,10.3
2017-11-14T11:25:14.405Z,10.3
2017-11-14T11:26:16.767Z,10.3
2017-11-14T11:27:19.142Z,10.3
2017-11-14T11:28:21.511Z,10.3
2017-11-14T11:29:23.878Z,10.3
2017-11-14T11:30:26.246Z,10.4
2017-11-14T11:31:28.608Z,10.4
2017-11-14T11:32:30.977Z,10.4
2017-11-14T11:33:33.712Z,10.4
2017-11-14T11:34:36.070Z,10.4
2017-11-14T11:35:38.436Z,10.4
2017-11-14T11:36:40.808Z,10.5
2017-11-14T11:37:43.179Z,10.4
2017-11-14T11:38:45.541Z,10.5
2017-11-14T11:39:47.903Z,10.5
2017-11-14T11:40:50.281Z,10.5
2017-11-14T11:41:52.663Z,10.5
2017-11-14T11:42:55.402Z,10.5
2017-11-14T11:43:57.762Z,10.5
2017-11-14T11:45:00.480Z,10.5
2017-11-14T11:46:02.848Z,10.5
2017-11-14T11:47:05.218Z,10.6
2017-11-14T11:48:07.585Z,10.6
2017-11-14T11:49:09.939Z,10.6
2017-11-14T11:50:12.312Z,10.7
2017-11-14T11:51:14.690Z,10.7
2017-11-14T11:52:17.056Z,10.7
2017-11-14T11:53:19.436Z,10.7
2017-11-14T11:54:21.809Z,10.7
2017-11-14T11:55:24.172Z,10.7
2017-11-14T11:56:26.546Z,10.7
2017-11-14T11:57:28.915Z,10.7
2017-11-14T11:58:31.274Z,10.8
2017-11-14T11:59:33.650Z,10.8
2017-11-14T12:00:36.376Z,10.8
2017-11-14T12:01:38.744Z,10.8
2017-11-14T12:02:41.122Z,10.8
2017-11-14T12:03:43.493Z,10.8
2017-11-14T12:04:45.867Z,10.8
2017-11-14T12:05:48.246Z,10.8
2017-11-14T12:06:50.615Z,10.9
2017-11-14T12:07:52.982Z,10.9
2017-11-14T12:08:55.345Z,10.9
2017-11-14T12:09:57.716Z,10.9
2017-11-14T12:11:00.084Z,11
2017-11-14T12:12:02.455Z,11
2017-11-14T12:13:04.818Z,11
2017-11-14T12:14:07.193Z,11
2017-11-14T12:15:09.554Z,11
2017-11-14T12:16:11.929Z,11
2017-11-14T12:17:14.292Z,11
2017-11-14T12:18:16.660Z,11.1
2017-11-14T12:19:19.027Z,11.1
2017-11-14T12:20:21.398Z,11.1
2017-11-14T12:21:23.767Z,11.1
2017-11-14T12:22:26.148Z,11.1
2017-11-14T12:23:28.501Z,11.1
2017-11-14T12:24:30.881Z,11.1
2017-11-14T12:25:33.250Z,11.1
2017-11-14T12:26:35.614Z,11.1
2017-11-14T12:27:37.994Z,11.1
2017-11-14T12:28:40.369Z,11.2
2017-11-14T12:29:42.732Z,11.2
2017-11-14T12:31:29.947Z,11.2
2017-11-14T12:32:32.324Z,11.2
2017-11-14T12:33:34.703Z,11.2
2017-11-14T12:34:37.409Z,11.2
2017-11-14T12:35:39.784Z,11.2
2017-11-14T12:36:42.154Z,11.3
2017-11-14T12:37:44.881Z,11.2
2017-11-14T12:38:47.250Z,11.3
2017-11-14T12:39:49.615Z,11.3
2017-11-14T12:40:51.991Z,11.3
2017-11-14T12:41:54.353Z,11.4
2017-11-14T12:42:56.722Z,11.4
2017-11-14T12:43:59.094Z,11.4
2017-11-14T12:45:01.462Z,11.4
2017-11-14T12:46:03.828Z,11.4
2017-11-14T12:47:06.565Z,11.4
2017-11-14T12:48:08.938Z,11.4
2017-11-14T12:49:11.311Z,11.4
2017-11-14T12:50:13.689Z,11.4
2017-11-14T12:51:16.048Z,11.4
2017-11-14T12:52:18.417Z,11.4
2017-11-14T12:53:20.797Z,11.5
2017-11-14T12:54:23.517Z,11.5
2017-11-14T12:55:25.883Z,11.5
2017-11-14T12:56:28.254Z,11.5
2017-11-14T12:57:30.903Z,11.5
2017-11-14T12:58:33.284Z,11.5
2017-11-14T12:59:35.653Z,11.5
2017-11-14T13:00:38.310Z,11.5
2017-11-14T13:01:40.672Z,11.5
2017-11-14T13:02:43.034Z,11.6
2017-11-14T13:03:45.408Z,11.6
2017-11-14T13:04:47.783Z,11.6
2017-11-14T13:05:50.148Z,11.6
2017-11-14T13:06:52.519Z,11.6
2017-11-14T13:07:54.898Z,11.6
2017-11-14T13:08:57.255Z,11.7
2017-11-14T13:09:59.632Z,11.7
2017-11-14T13:11:02.002Z,11.7
2017-11-14T13:12:04.373Z,11.7
2017-11-14T13:13:06.741Z,11.7
2017-11-14T13:14:09.111Z,11.7
2017-11-14T13:15:11.493Z,11.7
2017-11-14T13:16:13.856Z,11.8
2017-11-14T13:17:16.235Z,11.8
2017-11-14T13:18:18.613Z,11.8
2017-11-14T13:19:20.986Z,11.8
2017-11-14T13:20:23.353Z,11.8
2017-11-14T13:21:26.012Z,11.9
2017-11-14T13:22:28.380Z,11.9
2017-11-14T13:23:30.758Z,11.9
2017-11-14T13:24:33.130Z,11.9
2017-11-14T13:25:35.505Z,11.9
2017-11-14T13:26:38.159Z,11.8
2017-11-14T13:27:40.533Z,11.8
2017-11-14T13:28:42.902Z,11.8
2017-11-14T13:29:45.290Z,11.8
2017-11-14T13:30:47.649Z,11.7
2017-11-14T13:31:50.023Z,11.7
2017-11-14T13:32:52.677Z,11.7
2017-11-14T13:33:55.606Z,11.7
2017-11-14T13:34:57.978Z,11.7
2017-11-14T13:36:00.353Z,11.6
2017-11-14T13:37:02.720Z,11.7
2017-11-14T13:38:05.093Z,11.6
2017-11-14T13:39:07.461Z,11.6
2017-11-14T13:40:10.136Z,11.6
2017-11-14T13:41:12.831Z,11.7
2017-11-14T13:42:15.177Z,11.6
2017-11-14T13:43:18.109Z,11.6
2017-11-14T13:44:20.473Z,11.6
2017-11-14T13:45:22.844Z,11.6
2017-11-14T13:46:25.214Z,11.5
2017-11-14T13:47:27.585Z,11.5
2017-11-14T13:48:29.946Z,11.5
2017-11-14T13:49:32.323Z,11.4
2017-11-14T13:50:34.689Z,11.4
2017-11-14T13:51:37.063Z,11.4
2017-11-14T13:52:39.426Z,11.4
2017-11-14T13:53:41.793Z,11.4
2017-11-14T13:54:44.166Z,11.4
2017-11-14T13:55:46.541Z,11.4
2017-11-14T13:56:48.905Z,11.4
2017-11-14T13:57:51.570Z,11.4
2017-11-14T13:58:53.933Z,11.4
2017-11-14T13:59:56.307Z,11.4
2017-11-14T14:00:58.677Z,11.5
2017-11-14T14:02:01.332Z,11.4
2017-11-14T14:03:03.694Z,11.4
2017-11-14T14:04:06.368Z,11.4
2017-11-14T14:05:08.743Z,11.4
2017-11-14T14:06:11.125Z,11.4
2017-11-14T14:07:13.604Z,11.4
2017-11-14T14:08:15.967Z,11.4
2017-11-14T14:09:18.647Z,11.4
2017-11-14T14:10:21.017Z,11.4
2017-11-14T14:11:23.383Z,11.4
2017-11-14T14:12:25.772Z,11.3
2017-11-14T14:13:28.131Z,11.4
2017-11-14T14:14:30.502Z,11.4
2017-11-14T14:15:33.163Z,11.4
2017-11-14T14:16:35.521Z,11.4
2017-11-14T14:17:37.889Z,11.3
2017-11-14T14:18:40.268Z,11.3
2017-11-14T14:19:42.636Z,11.3